sensor_id;sensor_type;location;lat;lon;timestamp;P1;durP1;ratioP1;P2;durP2;ratioP2
16792;SDS011;8513;42.662;23.350;2022-08-19T00:00:14;6.22;;;5.63;;
16792;SDS011;8513;42.662;23.350;2022-08-19T00:02:40;8.95;;;5.43;;
16792;SDS011;8513;42.662;23.350;2022-08-19T00:05:07;7.57;;;5.72;;
16792;SDS011;8513;42.662;23.350;2022-08-19T00:07:33;6.32;;;5.20;;
16792;SDS011;8513;42.662;23.350;2022-08-19T00:09:59;7.13;;;5.65;;
16792;SDS011;8513;42.662;23.350;2022-08-19T00:12:24;10.68;;;5.82;;
16792;SDS011;8513;42.662;23.350;2022-08-19T00:14:50;6.60;;;5.90;;
16792;SDS011;8513;42.662;23.350;2022-08-19T00:17:16;9.02;;;6.10;;
16792;SDS011;8513;42.662;23.350;2022-08-19T00:19:41;6.50;;;5.70;;
16792;SDS011;8513;42.662;23.350;2022-08-19T00:22:06;6.07;;;5.45;;
16792;SDS011;8513;42.662;23.350;2022-08-19T00:24:34;6.82;;;6.05;;
16792;SDS011;8513;42.662;23.350;2022-08-19T00:27:00;6.95;;;5.80;;
16792;SDS011;8513;42.662;23.350;2022-08-19T00:29:26;6.57;;;5.60;;
16792;SDS011;8513;42.662;23.350;2022-08-19T00:31:53;6.82;;;6.22;;
16792;SDS011;8513;42.662;23.350;2022-08-19T00:34:20;6.75;;;6.07;;
16792;SDS011;8513;42.662;23.350;2022-08-19T00:36:47;7.18;;;6.47;;
16792;SDS011;8513;42.662;23.350;2022-08-19T00:39:13;7.03;;;6.45;;
16792;SDS011;8513;42.662;23.350;2022-08-19T00:41:40;7.53;;;5.88;;
16792;SDS011;8513;42.662;23.350;2022-08-19T00:44:09;6.85;;;6.25;;
16792;SDS011;8513;42.662;23.350;2022-08-19T00:46:40;7.45;;;6.22;;
16792;SDS011;8513;42.662;23.350;2022-08-19T00:49:10;9.85;;;6.15;;
16792;SDS011;8513;42.662;23.350;2022-08-19T00:51:40;10.90;;;6.70;;
16792;SDS011;8513;42.662;23.350;2022-08-19T00:54:07;8.80;;;6.57;;
16792;SDS011;8513;42.662;23.350;2022-08-19T00:56:34;6.72;;;6.07;;
16792;SDS011;8513;42.662;23.350;2022-08-19T00:59:00;6.78;;;6.03;;
16792;SDS011;8513;42.662;23.350;2022-08-19T01:01:27;6.45;;;5.85;;
16792;SDS011;8513;42.662;23.350;2022-08-19T01:03:52;6.53;;;6.00;;
16792;SDS011;8513;42.662;23.350;2022-08-19T01:06:18;7.10;;;5.45;;
16792;SDS011;8513;42.662;23.350;2022-08-19T01:08:43;6.50;;;6.00;;
16792;SDS011;8513;42.662;23.350;2022-08-19T01:11:09;7.35;;;6.03;;
16792;SDS011;8513;42.662;23.350;2022-08-19T01:13:35;9.80;;;6.20;;
16792;SDS011;8513;42.662;23.350;2022-08-19T01:16:02;7.10;;;6.32;;
16792;SDS011;8513;42.662;23.350;2022-08-19T01:18:30;6.65;;;6.05;;
16792;SDS011;8513;42.662;23.350;2022-08-19T01:21:04;9.48;;;6.93;;
16792;SDS011;8513;42.662;23.350;2022-08-19T01:23:45;6.93;;;6.22;;
16792;SDS011;8513;42.662;23.350;2022-08-19T01:26:18;6.45;;;5.85;;
16792;SDS011;8513;42.662;23.350;2022-08-19T01:28:46;7.32;;;6.50;;
16792;SDS011;8513;42.662;23.350;2022-08-19T01:31:24;7.35;;;6.57;;
16792;SDS011;8513;42.662;23.350;2022-08-19T01:33:56;6.65;;;6.10;;
16792;SDS011;8513;42.662;23.350;2022-08-19T01:36:41;7.53;;;6.78;;
16792;SDS011;8513;42.662;23.350;2022-08-19T01:39:11;8.18;;;6.50;;
16792;SDS011;8513;42.662;23.350;2022-08-19T01:41:39;8.23;;;6.57;;
16792;SDS011;8513;42.662;23.350;2022-08-19T01:44:05;7.72;;;6.90;;
16792;SDS011;8513;42.662;23.350;2022-08-19T01:46:32;6.47;;;5.97;;
16792;SDS011;8513;42.662;23.350;2022-08-19T01:48:58;7.07;;;5.65;;
16792;SDS011;8513;42.662;23.350;2022-08-19T01:51:24;6.65;;;6.15;;
16792;SDS011;8513;42.662;23.350;2022-08-19T01:53:49;7.38;;;6.60;;
16792;SDS011;8513;42.662;23.350;2022-08-19T01:56:16;8.10;;;7.28;;
16792;SDS011;8513;42.662;23.350;2022-08-19T01:58:44;7.13;;;6.43;;
16792;SDS011;8513;42.662;23.350;2022-08-19T02:01:14;6.93;;;6.07;;
16792;SDS011;8513;42.662;23.350;2022-08-19T02:03:39;7.20;;;6.50;;
16792;SDS011;8513;42.662;23.350;2022-08-19T02:06:05;7.03;;;6.28;;
16792;SDS011;8513;42.662;23.350;2022-08-19T02:08:32;8.15;;;6.55;;
16792;SDS011;8513;42.662;23.350;2022-08-19T02:10:59;8.63;;;6.95;;
16792;SDS011;8513;42.662;23.350;2022-08-19T02:13:27;7.45;;;6.78;;
16792;SDS011;8513;42.662;23.350;2022-08-19T02:15:53;7.55;;;6.60;;
16792;SDS011;8513;42.662;23.350;2022-08-19T02:18:18;8.82;;;6.65;;
16792;SDS011;8513;42.662;23.350;2022-08-19T02:20:44;7.15;;;6.53;;
16792;SDS011;8513;42.662;23.350;2022-08-19T02:23:11;7.70;;;6.60;;
16792;SDS011;8513;42.662;23.350;2022-08-19T02:25:38;7.00;;;6.40;;
16792;SDS011;8513;42.662;23.350;2022-08-19T02:28:05;7.50;;;6.75;;
16792;SDS011;8513;42.662;23.350;2022-08-19T02:30:31;7.65;;;6.93;;
16792;SDS011;8513;42.662;23.350;2022-08-19T02:32:56;7.35;;;6.53;;
16792;SDS011;8513;42.662;23.350;2022-08-19T02:35:21;7.57;;;6.88;;
16792;SDS011;8513;42.662;23.350;2022-08-19T02:37:47;7.00;;;6.30;;
16792;SDS011;8513;42.662;23.350;2022-08-19T02:40:32;9.57;;;6.07;;
16792;SDS011;8513;42.662;23.350;2022-08-19T02:42:59;7.55;;;6.85;;
16792;SDS011;8513;42.662;23.350;2022-08-19T02:45:26;7.68;;;6.90;;
16792;SDS011;8513;42.662;23.350;2022-08-19T02:47:51;11.88;;;6.97;;
16792;SDS011;8513;42.662;23.350;2022-08-19T02:50:17;7.47;;;6.63;;
16792;SDS011;8513;42.662;23.350;2022-08-19T02:52:43;7.55;;;6.88;;
16792;SDS011;8513;42.662;23.350;2022-08-19T02:55:09;9.50;;;6.88;;
16792;SDS011;8513;42.662;23.350;2022-08-19T02:57:35;8.95;;;7.13;;
16792;SDS011;8513;42.662;23.350;2022-08-19T03:00:00;9.38;;;7.00;;
16792;SDS011;8513;42.662;23.350;2022-08-19T03:02:30;7.65;;;6.82;;
16792;SDS011;8513;42.662;23.350;2022-08-19T03:04:55;8.35;;;6.70;;
16792;SDS011;8513;42.662;23.350;2022-08-19T03:07:20;8.63;;;7.00;;
16792;SDS011;8513;42.662;23.350;2022-08-19T03:09:46;7.65;;;6.70;;
16792;SDS011;8513;42.662;23.350;2022-08-19T03:12:12;11.98;;;6.65;;
16792;SDS011;8513;42.662;23.350;2022-08-19T03:14:37;7.18;;;6.53;;
16792;SDS011;8513;42.662;23.350;2022-08-19T03:17:03;7.85;;;7.05;;
16792;SDS011;8513;42.662;23.350;2022-08-19T03:19:29;8.90;;;6.68;;
16792;SDS011;8513;42.662;23.350;2022-08-19T03:21:56;8.65;;;6.97;;
16792;SDS011;8513;42.662;23.350;2022-08-19T03:24:22;7.25;;;6.43;;
16792;SDS011;8513;42.662;23.350;2022-08-19T03:26:49;10.38;;;6.47;;
16792;SDS011;8513;42.662;23.350;2022-08-19T03:29:17;8.30;;;6.47;;
16792;SDS011;8513;42.662;23.350;2022-08-19T03:31:45;9.40;;;6.72;;
16792;SDS011;8513;42.662;23.350;2022-08-19T03:34:12;8.35;;;7.00;;
16792;SDS011;8513;42.662;23.350;2022-08-19T03:36:39;8.00;;;7.20;;
16792;SDS011;8513;42.662;23.350;2022-08-19T03:39:05;8.48;;;7.60;;
16792;SDS011;8513;42.662;23.350;2022-08-19T03:41:31;8.88;;;7.20;;
16792;SDS011;8513;42.662;23.350;2022-08-19T03:44:01;8.63;;;7.05;;
16792;SDS011;8513;42.662;23.350;2022-08-19T03:46:28;8.88;;;6.50;;
16792;SDS011;8513;42.662;23.350;2022-08-19T03:48:56;7.82;;;7.13;;
16792;SDS011;8513;42.662;23.350;2022-08-19T03:51:23;7.97;;;7.05;;
16792;SDS011;8513;42.662;23.350;2022-08-19T03:53:52;8.43;;;7.18;;
16792;SDS011;8513;42.662;23.350;2022-08-19T03:56:19;11.65;;;7.85;;
16792;SDS011;8513;42.662;23.350;2022-08-19T03:58:46;9.02;;;7.57;;
16792;SDS011;8513;42.662;23.350;2022-08-19T04:01:14;8.95;;;8.02;;
16792;SDS011;8513;42.662;23.350;2022-08-19T04:03:42;7.90;;;7.20;;
16792;SDS011;8513;42.662;23.350;2022-08-19T04:06:11;9.80;;;7.57;;
16792;SDS011;8513;42.662;23.350;2022-08-19T04:08:42;8.65;;;7.95;;
16792;SDS011;8513;42.662;23.350;2022-08-19T04:11:10;8.95;;;7.65;;
16792;SDS011;8513;42.662;23.350;2022-08-19T04:13:38;9.82;;;8.55;;
16792;SDS011;8513;42.662;23.350;2022-08-19T04:16:03;17.77;;;8.48;;
16792;SDS011;8513;42.662;23.350;2022-08-19T04:18:30;8.70;;;8.00;;
16792;SDS011;8513;42.662;23.350;2022-08-19T04:20:56;8.95;;;8.05;;
16792;SDS011;8513;42.662;23.350;2022-08-19T04:23:22;10.25;;;7.90;;
16792;SDS011;8513;42.662;23.350;2022-08-19T04:25:48;10.30;;;7.95;;
16792;SDS011;8513;42.662;23.350;2022-08-19T04:28:13;8.98;;;8.10;;
16792;SDS011;8513;42.662;23.350;2022-08-19T04:30:44;8.60;;;7.60;;
16792;SDS011;8513;42.662;23.350;2022-08-19T04:33:13;11.35;;;8.73;;
16792;SDS011;8513;42.662;23.350;2022-08-19T04:35:41;12.35;;;8.25;;
16792;SDS011;8513;42.662;23.350;2022-08-19T04:38:08;11.30;;;8.70;;
16792;SDS011;8513;42.662;23.350;2022-08-19T04:40:34;10.02;;;7.93;;
16792;SDS011;8513;42.662;23.350;2022-08-19T04:43:23;8.85;;;7.90;;
16792;SDS011;8513;42.662;23.350;2022-08-19T04:45:49;10.00;;;8.05;;
16792;SDS011;8513;42.662;23.350;2022-08-19T04:48:16;8.73;;;7.85;;
16792;SDS011;8513;42.662;23.350;2022-08-19T04:50:42;10.30;;;8.05;;
16792;SDS011;8513;42.662;23.350;2022-08-19T04:53:09;10.77;;;7.57;;
16792;SDS011;8513;42.662;23.350;2022-08-19T04:55:38;9.30;;;8.38;;
16792;SDS011;8513;42.662;23.350;2022-08-19T04:58:04;8.90;;;8.10;;
16792;SDS011;8513;42.662;23.350;2022-08-19T05:00:30;7.72;;;7.05;;
16792;SDS011;8513;42.662;23.350;2022-08-19T05:02:55;7.80;;;7.00;;
16792;SDS011;8513;42.662;23.350;2022-08-19T05:05:21;11.02;;;8.10;;
16792;SDS011;8513;42.662;23.350;2022-08-19T05:07:46;11.27;;;8.48;;
16792;SDS011;8513;42.662;23.350;2022-08-19T05:10:12;9.38;;;8.45;;
16792;SDS011;8513;42.662;23.350;2022-08-19T05:12:38;9.90;;;8.60;;
16792;SDS011;8513;42.662;23.350;2022-08-19T05:15:04;10.05;;;8.93;;
16792;SDS011;8513;42.662;23.350;2022-08-19T05:17:33;10.23;;;9.10;;
16792;SDS011;8513;42.662;23.350;2022-08-19T05:19:58;11.32;;;9.65;;
16792;SDS011;8513;42.662;23.350;2022-08-19T05:22:43;13.40;;;9.60;;
16792;SDS011;8513;42.662;23.350;2022-08-19T05:25:13;11.30;;;9.10;;
16792;SDS011;8513;42.662;23.350;2022-08-19T05:27:43;13.30;;;9.48;;
16792;SDS011;8513;42.662;23.350;2022-08-19T05:30:09;10.65;;;8.55;;
16792;SDS011;8513;42.662;23.350;2022-08-19T05:32:36;10.75;;;8.13;;
16792;SDS011;8513;42.662;23.350;2022-08-19T05:35:02;9.02;;;8.13;;
16792;SDS011;8513;42.662;23.350;2022-08-19T05:37:29;9.15;;;8.25;;
16792;SDS011;8513;42.662;23.350;2022-08-19T05:39:54;10.68;;;7.78;;
16792;SDS011;8513;42.662;23.350;2022-08-19T05:42:20;8.43;;;7.72;;
16792;SDS011;8513;42.662;23.350;2022-08-19T05:44:47;10.02;;;9.00;;
16792;SDS011;8513;42.662;23.350;2022-08-19T05:47:14;10.75;;;7.97;;
16792;SDS011;8513;42.662;23.350;2022-08-19T05:49:41;9.00;;;8.05;;
16792;SDS011;8513;42.662;23.350;2022-08-19T05:52:09;9.73;;;8.32;;
16792;SDS011;8513;42.662;23.350;2022-08-19T05:54:37;8.90;;;8.05;;
16792;SDS011;8513;42.662;23.350;2022-08-19T05:57:05;9.52;;;8.60;;
16792;SDS011;8513;42.662;23.350;2022-08-19T05:59:31;9.27;;;8.25;;
16792;SDS011;8513;42.662;23.350;2022-08-19T06:01:56;8.10;;;7.40;;
16792;SDS011;8513;42.662;23.350;2022-08-19T06:04:22;10.30;;;9.20;;
16792;SDS011;8513;42.662;23.350;2022-08-19T06:06:48;10.50;;;7.20;;
16792;SDS011;8513;42.662;23.350;2022-08-19T06:09:17;8.27;;;7.45;;
16792;SDS011;8513;42.662;23.350;2022-08-19T06:11:51;8.60;;;7.18;;
16792;SDS011;8513;42.662;23.350;2022-08-19T06:14:24;9.48;;;6.80;;
16792;SDS011;8513;42.662;23.350;2022-08-19T06:16:54;8.63;;;7.78;;
16792;SDS011;8513;42.662;23.350;2022-08-19T06:19:21;11.60;;;7.10;;
16792;SDS011;8513;42.662;23.350;2022-08-19T06:21:49;10.32;;;7.40;;
16792;SDS011;8513;42.662;23.350;2022-08-19T06:24:19;7.93;;;7.10;;
16792;SDS011;8513;42.662;23.350;2022-08-19T06:26:51;10.45;;;6.97;;
16792;SDS011;8513;42.662;23.350;2022-08-19T06:29:20;9.80;;;7.40;;
16792;SDS011;8513;42.662;23.350;2022-08-19T06:31:50;7.60;;;6.97;;
16792;SDS011;8513;42.662;23.350;2022-08-19T06:34:17;8.13;;;7.03;;
16792;SDS011;8513;42.662;23.350;2022-08-19T06:36:45;7.70;;;6.60;;
16792;SDS011;8513;42.662;23.350;2022-08-19T06:39:16;10.23;;;8.55;;
16792;SDS011;8513;42.662;23.350;2022-08-19T06:41:45;8.52;;;7.75;;
16792;SDS011;8513;42.662;23.350;2022-08-19T06:44:13;8.48;;;7.68;;
16792;SDS011;8513;42.662;23.350;2022-08-19T06:46:40;8.60;;;6.97;;
16792;SDS011;8513;42.662;23.350;2022-08-19T06:49:06;8.43;;;7.55;;
16792;SDS011;8513;42.662;23.350;2022-08-19T06:51:35;8.32;;;7.40;;
16792;SDS011;8513;42.662;23.350;2022-08-19T06:54:01;8.43;;;7.35;;
16792;SDS011;8513;42.662;23.350;2022-08-19T06:56:29;10.30;;;7.32;;
16792;SDS011;8513;42.662;23.350;2022-08-19T06:58:58;12.00;;;8.23;;
16792;SDS011;8513;42.662;23.350;2022-08-19T07:01:36;9.73;;;7.63;;
16792;SDS011;8513;42.662;23.350;2022-08-19T07:04:05;10.15;;;7.70;;
16792;SDS011;8513;42.662;23.350;2022-08-19T07:06:33;8.88;;;7.60;;
16792;SDS011;8513;42.662;23.350;2022-08-19T07:08:59;13.70;;;8.63;;
16792;SDS011;8513;42.662;23.350;2022-08-19T07:11:25;9.10;;;8.13;;
16792;SDS011;8513;42.662;23.350;2022-08-19T07:13:50;14.88;;;10.10;;
16792;SDS011;8513;42.662;23.350;2022-08-19T07:16:17;8.63;;;7.70;;
16792;SDS011;8513;42.662;23.350;2022-08-19T07:18:44;8.35;;;7.53;;
16792;SDS011;8513;42.662;23.350;2022-08-19T07:21:19;11.85;;;7.80;;
16792;SDS011;8513;42.662;23.350;2022-08-19T07:23:48;13.75;;;8.13;;
16792;SDS011;8513;42.662;23.350;2022-08-19T07:26:19;10.60;;;7.57;;
16792;SDS011;8513;42.662;23.350;2022-08-19T07:28:47;10.50;;;7.50;;
16792;SDS011;8513;42.662;23.350;2022-08-19T07:31:13;8.00;;;7.20;;
16792;SDS011;8513;42.662;23.350;2022-08-19T07:33:43;13.40;;;7.85;;
16792;SDS011;8513;42.662;23.350;2022-08-19T07:36:10;13.00;;;8.48;;
16792;SDS011;8513;42.662;23.350;2022-08-19T07:38:38;10.30;;;8.20;;
16792;SDS011;8513;42.662;23.350;2022-08-19T07:41:06;10.55;;;9.35;;
16792;SDS011;8513;42.662;23.350;2022-08-19T07:43:32;12.48;;;8.13;;
16792;SDS011;8513;42.662;23.350;2022-08-19T07:45:57;12.88;;;7.55;;
16792;SDS011;8513;42.662;23.350;2022-08-19T07:48:24;8.00;;;7.22;;
16792;SDS011;8513;42.662;23.350;2022-08-19T07:51:01;8.88;;;6.85;;
16792;SDS011;8513;42.662;23.350;2022-08-19T07:53:29;8.10;;;6.93;;
16792;SDS011;8513;42.662;23.350;2022-08-19T07:55:57;9.70;;;7.82;;
16792;SDS011;8513;42.662;23.350;2022-08-19T07:58:26;9.18;;;7.03;;
16792;SDS011;8513;42.662;23.350;2022-08-19T08:00:52;11.32;;;7.45;;
16792;SDS011;8513;42.662;23.350;2022-08-19T08:03:19;12.77;;;7.63;;
16792;SDS011;8513;42.662;23.350;2022-08-19T08:06:06;9.48;;;7.40;;
16792;SDS011;8513;42.662;23.350;2022-08-19T08:08:50;9.50;;;8.10;;
16792;SDS011;8513;42.662;23.350;2022-08-19T08:11:33;11.82;;;7.63;;
16792;SDS011;8513;42.662;23.350;2022-08-19T08:13:59;11.10;;;8.10;;
16792;SDS011;8513;42.662;23.350;2022-08-19T08:16:25;10.05;;;7.30;;
16792;SDS011;8513;42.662;23.350;2022-08-19T08:18:54;14.10;;;7.22;;
16792;SDS011;8513;42.662;23.350;2022-08-19T08:21:20;10.55;;;7.15;;
16792;SDS011;8513;42.662;23.350;2022-08-19T08:23:45;10.43;;;7.38;;
16792;SDS011;8513;42.662;23.350;2022-08-19T08:26:11;10.10;;;6.75;;
16792;SDS011;8513;42.662;23.350;2022-08-19T08:28:38;7.40;;;6.53;;
16792;SDS011;8513;42.662;23.350;2022-08-19T08:31:03;10.35;;;6.88;;
16792;SDS011;8513;42.662;23.350;2022-08-19T08:33:29;8.25;;;6.28;;
16792;SDS011;8513;42.662;23.350;2022-08-19T08:35:55;11.60;;;6.57;;
16792;SDS011;8513;42.662;23.350;2022-08-19T08:38:21;8.35;;;7.07;;
16792;SDS011;8513;42.662;23.350;2022-08-19T08:40:48;9.02;;;6.32;;
16792;SDS011;8513;42.662;23.350;2022-08-19T08:51:32;9.65;;;6.22;;
16792;SDS011;8513;42.662;23.350;2022-08-19T08:54:01;7.20;;;6.45;;
16792;SDS011;8513;42.662;23.350;2022-08-19T08:56:33;7.80;;;6.50;;
16792;SDS011;8513;42.662;23.350;2022-08-19T08:59:04;8.27;;;6.20;;
16792;SDS011;8513;42.662;23.350;2022-08-19T09:01:33;10.38;;;9.48;;
16792;SDS011;8513;42.662;23.350;2022-08-19T09:03:59;9.85;;;7.82;;
16792;SDS011;8513;42.662;23.350;2022-08-19T09:06:33;8.90;;;6.05;;
16792;SDS011;8513;42.662;23.350;2022-08-19T09:15:12;7.03;;;6.03;;
16792;SDS011;8513;42.662;23.350;2022-08-19T09:17:39;6.50;;;5.95;;
16792;SDS011;8513;42.662;23.350;2022-08-19T09:22:42;6.40;;;5.82;;
16792;SDS011;8513;42.662;23.350;2022-08-19T09:25:12;6.05;;;5.45;;
16792;SDS011;8513;42.662;23.350;2022-08-19T09:27:40;5.82;;;3.80;;
16792;SDS011;8513;42.662;23.350;2022-08-19T09:30:08;4.57;;;4.00;;
16792;SDS011;8513;42.662;23.350;2022-08-19T09:32:37;5.97;;;5.47;;
16792;SDS011;8513;42.662;23.350;2022-08-19T09:35:07;4.95;;;4.55;;
16792;SDS011;8513;42.662;23.350;2022-08-19T09:37:33;5.50;;;5.00;;
16792;SDS011;8513;42.662;23.350;2022-08-19T09:39:58;4.60;;;4.28;;
16792;SDS011;8513;42.662;23.350;2022-08-19T09:42:23;6.38;;;4.90;;
16792;SDS011;8513;42.662;23.350;2022-08-19T09:44:49;7.68;;;5.10;;
16792;SDS011;8513;42.662;23.350;2022-08-19T09:47:14;5.45;;;4.70;;
16792;SDS011;8513;42.662;23.350;2022-08-19T09:49:40;5.53;;;4.75;;
16792;SDS011;8513;42.662;23.350;2022-08-19T09:52:08;4.60;;;4.18;;
16792;SDS011;8513;42.662;23.350;2022-08-19T09:54:34;6.55;;;4.43;;
16792;SDS011;8513;42.662;23.350;2022-08-19T09:57:00;4.22;;;3.92;;
16792;SDS011;8513;42.662;23.350;2022-08-19T09:59:26;7.43;;;4.05;;
16792;SDS011;8513;42.662;23.350;2022-08-19T10:01:52;5.13;;;4.68;;
16792;SDS011;8513;42.662;23.350;2022-08-19T10:04:17;5.63;;;5.10;;
16792;SDS011;8513;42.662;23.350;2022-08-19T10:06:43;5.22;;;4.75;;
16792;SDS011;8513;42.662;23.350;2022-08-19T10:09:09;5.40;;;4.30;;
16792;SDS011;8513;42.662;23.350;2022-08-19T10:11:36;7.07;;;4.32;;
16792;SDS011;8513;42.662;23.350;2022-08-19T10:14:04;6.47;;;4.88;;
16792;SDS011;8513;42.662;23.350;2022-08-19T10:16:30;5.78;;;4.80;;
16792;SDS011;8513;42.662;23.350;2022-08-19T10:18:56;5.32;;;4.82;;
16792;SDS011;8513;42.662;23.350;2022-08-19T10:21:26;6.22;;;4.95;;
16792;SDS011;8513;42.662;23.350;2022-08-19T10:23:54;4.72;;;4.22;;
16792;SDS011;8513;42.662;23.350;2022-08-19T10:26:26;5.32;;;4.40;;
16792;SDS011;8513;42.662;23.350;2022-08-19T10:28:53;5.75;;;5.25;;
16792;SDS011;8513;42.662;23.350;2022-08-19T10:31:27;8.85;;;7.53;;
16792;SDS011;8513;42.662;23.350;2022-08-19T10:33:54;5.55;;;4.40;;
16792;SDS011;8513;42.662;23.350;2022-08-19T10:36:24;4.85;;;4.38;;
16792;SDS011;8513;42.662;23.350;2022-08-19T10:38:54;4.75;;;4.35;;
16792;SDS011;8513;42.662;23.350;2022-08-19T10:41:24;5.40;;;4.90;;
16792;SDS011;8513;42.662;23.350;2022-08-19T10:43:52;6.40;;;4.28;;
16792;SDS011;8513;42.662;23.350;2022-08-19T10:46:19;4.65;;;4.22;;
16792;SDS011;8513;42.662;23.350;2022-08-19T10:48:46;7.25;;;4.65;;
16792;SDS011;8513;42.662;23.350;2022-08-19T10:51:12;4.60;;;4.20;;
16792;SDS011;8513;42.662;23.350;2022-08-19T10:54:16;6.95;;;4.18;;
16792;SDS011;8513;42.662;23.350;2022-08-19T10:56:42;6.72;;;4.68;;
16792;SDS011;8513;42.662;23.350;2022-08-19T10:59:23;5.18;;;4.75;;
16792;SDS011;8513;42.662;23.350;2022-08-19T11:01:52;5.10;;;4.70;;
16792;SDS011;8513;42.662;23.350;2022-08-19T11:04:19;6.07;;;4.88;;
16792;SDS011;8513;42.662;23.350;2022-08-19T11:06:45;5.18;;;4.65;;
16792;SDS011;8513;42.662;23.350;2022-08-19T11:09:15;5.07;;;4.45;;
16792;SDS011;8513;42.662;23.350;2022-08-19T11:11:46;5.10;;;4.63;;
16792;SDS011;8513;42.662;23.350;2022-08-19T11:14:13;4.88;;;4.47;;
16792;SDS011;8513;42.662;23.350;2022-08-19T11:16:41;4.95;;;4.47;;
16792;SDS011;8513;42.662;23.350;2022-08-19T11:19:08;5.70;;;4.88;;
16792;SDS011;8513;42.662;23.350;2022-08-19T11:21:40;4.70;;;4.22;;
16792;SDS011;8513;42.662;23.350;2022-08-19T11:24:08;5.10;;;4.60;;
16792;SDS011;8513;42.662;23.350;2022-08-19T11:26:36;5.50;;;5.03;;
16792;SDS011;8513;42.662;23.350;2022-08-19T11:29:04;5.45;;;4.78;;
16792;SDS011;8513;42.662;23.350;2022-08-19T11:31:32;5.32;;;4.82;;
16792;SDS011;8513;42.662;23.350;2022-08-19T11:34:01;5.88;;;4.93;;
16792;SDS011;8513;42.662;23.350;2022-08-19T11:36:29;4.70;;;4.25;;
16792;SDS011;8513;42.662;23.350;2022-08-19T11:38:56;6.93;;;4.60;;
16792;SDS011;8513;42.662;23.350;2022-08-19T11:41:22;4.68;;;4.30;;
16792;SDS011;8513;42.662;23.350;2022-08-19T11:43:49;5.15;;;4.65;;
16792;SDS011;8513;42.662;23.350;2022-08-19T11:46:17;5.07;;;4.35;;
16792;SDS011;8513;42.662;23.350;2022-08-19T11:48:43;6.28;;;4.97;;
16792;SDS011;8513;42.662;23.350;2022-08-19T11:51:13;5.68;;;4.72;;
16792;SDS011;8513;42.662;23.350;2022-08-19T11:53:43;7.72;;;5.15;;
16792;SDS011;8513;42.662;23.350;2022-08-19T11:56:09;5.30;;;4.68;;
16792;SDS011;8513;42.662;23.350;2022-08-19T11:58:35;5.80;;;4.45;;
16792;SDS011;8513;42.662;23.350;2022-08-19T12:01:04;5.63;;;4.93;;
16792;SDS011;8513;42.662;23.350;2022-08-19T12:03:30;5.32;;;4.82;;
16792;SDS011;8513;42.662;23.350;2022-08-19T12:05:56;5.00;;;4.50;;
16792;SDS011;8513;42.662;23.350;2022-08-19T12:08:21;5.45;;;4.60;;
16792;SDS011;8513;42.662;23.350;2022-08-19T12:10:47;5.43;;;5.03;;
16792;SDS011;8513;42.662;23.350;2022-08-19T12:13:13;5.53;;;5.13;;
16792;SDS011;8513;42.662;23.350;2022-08-19T12:15:43;5.43;;;4.90;;
16792;SDS011;8513;42.662;23.350;2022-08-19T12:18:10;4.90;;;4.45;;
16792;SDS011;8513;42.662;23.350;2022-08-19T12:20:36;6.05;;;4.80;;
16792;SDS011;8513;42.662;23.350;2022-08-19T12:23:04;5.40;;;4.93;;
16792;SDS011;8513;42.662;23.350;2022-08-19T12:25:31;5.78;;;5.22;;
16792;SDS011;8513;42.662;23.350;2022-08-19T12:27:56;5.20;;;4.70;;
16792;SDS011;8513;42.662;23.350;2022-08-19T12:30:22;4.88;;;4.35;;
16792;SDS011;8513;42.662;23.350;2022-08-19T12:32:48;5.15;;;4.70;;
16792;SDS011;8513;42.662;23.350;2022-08-19T12:35:13;7.35;;;5.00;;
16792;SDS011;8513;42.662;23.350;2022-08-19T12:37:39;5.50;;;5.00;;
16792;SDS011;8513;42.662;23.350;2022-08-19T12:40:07;5.63;;;4.90;;
16792;SDS011;8513;42.662;23.350;2022-08-19T12:42:33;6.97;;;4.88;;
16792;SDS011;8513;42.662;23.350;2022-08-19T12:44:59;5.45;;;4.95;;
16792;SDS011;8513;42.662;23.350;2022-08-19T12:47:25;6.40;;;4.68;;
16792;SDS011;8513;42.662;23.350;2022-08-19T12:49:52;5.78;;;4.72;;
16792;SDS011;8513;42.662;23.350;2022-08-19T12:52:17;4.68;;;4.28;;
16792;SDS011;8513;42.662;23.350;2022-08-19T12:54:45;5.55;;;4.95;;
16792;SDS011;8513;42.662;23.350;2022-08-19T12:57:11;6.22;;;4.75;;
16792;SDS011;8513;42.662;23.350;2022-08-19T12:59:37;5.68;;;4.93;;
16792;SDS011;8513;42.662;23.350;2022-08-19T13:02:04;5.72;;;4.53;;
16792;SDS011;8513;42.662;23.350;2022-08-19T13:04:33;5.38;;;4.72;;
16792;SDS011;8513;42.662;23.350;2022-08-19T13:07:01;4.43;;;4.10;;
16792;SDS011;8513;42.662;23.350;2022-08-19T13:09:27;4.78;;;4.38;;
16792;SDS011;8513;42.662;23.350;2022-08-19T13:11:53;9.00;;;4.90;;
16792;SDS011;8513;42.662;23.350;2022-08-19T13:14:18;6.10;;;4.95;;
16792;SDS011;8513;42.662;23.350;2022-08-19T13:16:43;5.80;;;4.75;;
16792;SDS011;8513;42.662;23.350;2022-08-19T13:19:09;5.07;;;4.60;;
16792;SDS011;8513;42.662;23.350;2022-08-19T13:21:35;6.50;;;4.85;;
16792;SDS011;8513;42.662;23.350;2022-08-19T13:24:01;4.82;;;4.25;;
16792;SDS011;8513;42.662;23.350;2022-08-19T13:26:27;5.07;;;4.57;;
16792;SDS011;8513;42.662;23.350;2022-08-19T13:28:52;5.43;;;5.03;;
16792;SDS011;8513;42.662;23.350;2022-08-19T13:31:38;6.15;;;4.82;;
16792;SDS011;8513;42.662;23.350;2022-08-19T13:34:29;5.60;;;4.85;;
16792;SDS011;8513;42.662;23.350;2022-08-19T13:37:00;5.07;;;4.68;;
16792;SDS011;8513;42.662;23.350;2022-08-19T13:39:28;5.95;;;5.25;;
16792;SDS011;8513;42.662;23.350;2022-08-19T13:41:54;4.97;;;4.45;;
16792;SDS011;8513;42.662;23.350;2022-08-19T13:44:19;5.03;;;4.53;;
16792;SDS011;8513;42.662;23.350;2022-08-19T13:46:46;5.05;;;4.55;;
16792;SDS011;8513;42.662;23.350;2022-08-19T13:49:13;5.07;;;4.57;;
16792;SDS011;8513;42.662;23.350;2022-08-19T13:51:40;5.15;;;4.72;;
16792;SDS011;8513;42.662;23.350;2022-08-19T13:54:07;5.07;;;4.10;;
16792;SDS011;8513;42.662;23.350;2022-08-19T13:56:33;7.38;;;4.95;;
16792;SDS011;8513;42.662;23.350;2022-08-19T13:58:59;7.10;;;4.68;;
16792;SDS011;8513;42.662;23.350;2022-08-19T14:01:25;6.15;;;4.75;;
16792;SDS011;8513;42.662;23.350;2022-08-19T14:03:51;5.93;;;5.43;;
16792;SDS011;8513;42.662;23.350;2022-08-19T14:06:17;5.28;;;4.82;;
16792;SDS011;8513;42.662;23.350;2022-08-19T14:08:43;5.60;;;5.07;;
16792;SDS011;8513;42.662;23.350;2022-08-19T14:11:09;5.68;;;4.88;;
16792;SDS011;8513;42.662;23.350;2022-08-19T14:13:35;5.38;;;4.72;;
16792;SDS011;8513;42.662;23.350;2022-08-19T14:16:01;5.57;;;5.18;;
16792;SDS011;8513;42.662;23.350;2022-08-19T14:18:32;6.25;;;5.68;;
16792;SDS011;8513;42.662;23.350;2022-08-19T14:20:57;6.03;;;5.50;;
16792;SDS011;8513;42.662;23.350;2022-08-19T14:23:22;6.03;;;5.57;;
16792;SDS011;8513;42.662;23.350;2022-08-19T14:25:48;6.97;;;6.38;;
16792;SDS011;8513;42.662;23.350;2022-08-19T14:28:13;6.85;;;6.45;;
16792;SDS011;8513;42.662;23.350;2022-08-19T14:30:39;7.70;;;7.20;;
16792;SDS011;8513;42.662;23.350;2022-08-19T14:33:04;8.57;;;8.07;;
16792;SDS011;8513;42.662;23.350;2022-08-19T14:35:32;8.60;;;8.00;;
16792;SDS011;8513;42.662;23.350;2022-08-19T14:38:01;8.88;;;8.23;;
16792;SDS011;8513;42.662;23.350;2022-08-19T14:40:30;8.65;;;7.95;;
16792;SDS011;8513;42.662;23.350;2022-08-19T14:42:57;9.90;;;9.40;;
16792;SDS011;8513;42.662;23.350;2022-08-19T14:45:26;10.52;;;9.73;;
16792;SDS011;8513;42.662;23.350;2022-08-19T14:47:53;11.25;;;10.35;;
16792;SDS011;8513;42.662;23.350;2022-08-19T14:50:18;9.35;;;8.60;;
16792;SDS011;8513;42.662;23.350;2022-08-19T14:52:45;10.57;;;9.88;;
16792;SDS011;8513;42.662;23.350;2022-08-19T14:55:16;10.07;;;9.10;;
16792;SDS011;8513;42.662;23.350;2022-08-19T14:57:42;9.57;;;8.90;;
16792;SDS011;8513;42.662;23.350;2022-08-19T15:00:09;8.43;;;7.68;;
16792;SDS011;8513;42.662;23.350;2022-08-19T15:02:39;9.43;;;8.48;;
16792;SDS011;8513;42.662;23.350;2022-08-19T15:05:30;10.27;;;9.13;;